createdAt,value
2023-01-22T00:00:06.801Z,30.30
2023-01-22T00:02:36.481Z,27.55
2023-01-22T00:05:04.795Z,26.65
2023-01-22T00:07:31.736Z,30.30
2023-01-22T00:09:59.983Z,27.20
2023-01-22T00:12:27.614Z,28.17
2023-01-22T00:14:54.358Z,29.45
2023-01-22T00:17:21.162Z,27.30
2023-01-22T00:19:47.926Z,29.67
2023-01-22T00:22:14.615Z,30.60
2023-01-22T00:24:41.277Z,28.17
2023-01-22T00:27:07.954Z,29.63
2023-01-22T00:29:34.968Z,27.88
2023-01-22T00:32:01.960Z,33.05
2023-01-22T00:34:28.926Z,29.98
2023-01-22T00:36:56.232Z,25.08
2023-01-22T00:39:22.889Z,28.00
2023-01-22T00:41:49.933Z,32.13
2023-01-22T00:44:16.685Z,26.88
2023-01-22T00:46:43.314Z,29.08
2023-01-22T00:49:10.018Z,29.52
2023-01-22T00:51:39.247Z,27.27
2023-01-22T00:54:05.931Z,26.67
2023-01-22T00:56:32.632Z,37.85
2023-01-22T00:58:59.478Z,30.30
2023-01-22T01:01:26.169Z,36.45
2023-01-22T01:03:52.844Z,30.52
2023-01-22T01:06:21.653Z,28.65
2023-01-22T01:08:49.056Z,31.02
2023-01-22T01:11:19.347Z,29.52
2023-01-22T01:13:46.086Z,34.20
2023-01-22T01:16:18.792Z,29.85
2023-01-22T01:18:46.000Z,28.67
2023-01-22T01:21:13.334Z,28.05
2023-01-22T01:23:40.044Z,32.30
2023-01-22T01:26:08.014Z,28.27
2023-01-22T01:28:36.547Z,29.85
2023-01-22T01:31:08.560Z,28.40
2023-01-22T01:33:35.400Z,32.30
2023-01-22T01:36:07.386Z,30.33
2023-01-22T01:38:34.383Z,26.70
2023-01-22T01:41:01.186Z,29.25
2023-01-22T01:43:28.503Z,32.25
2023-01-22T01:45:57.655Z,30.90
2023-01-22T01:48:31.679Z,31.13
2023-01-22T01:51:04.000Z,31.48
2023-01-22T01:53:31.726Z,29.67
2023-01-22T01:56:00.923Z,29.27
2023-01-22T01:58:31.790Z,26.58
2023-01-22T02:01:05.282Z,28.70
2023-01-22T02:03:31.995Z,31.65
2023-01-22T02:05:58.674Z,28.10
2023-01-22T02:08:25.453Z,28.05
2023-01-22T02:10:53.930Z,31.40
2023-01-22T02:13:27.669Z,29.08
2023-01-22T02:15:54.716Z,29.88
2023-01-22T02:18:21.454Z,24.83
2023-01-22T02:20:59.500Z,28.45
2023-01-22T02:23:27.504Z,28.02
2023-01-22T02:25:54.254Z,28.25
2023-01-22T02:28:21.010Z,31.13
2023-01-22T02:30:47.662Z,34.42
2023-01-22T02:33:14.401Z,26.90
2023-01-22T02:35:41.137Z,27.30
2023-01-22T02:38:07.824Z,31.45
2023-01-22T02:40:34.599Z,29.30
2023-01-22T02:43:01.767Z,30.50
2023-01-22T02:45:28.488Z,28.98
2023-01-22T02:47:55.112Z,29.00
2023-01-22T02:50:21.771Z,28.52
2023-01-22T02:52:48.387Z,30.05
2023-01-22T02:55:15.131Z,32.25
2023-01-22T02:57:41.796Z,27.85
2023-01-22T03:00:09.223Z,28.08
2023-01-22T03:02:35.852Z,30.35
2023-01-22T03:05:05.420Z,29.05
2023-01-22T03:07:42.330Z,32.97
2023-01-22T03:10:15.412Z,32.53
2023-01-22T03:13:01.321Z,30.52
2023-01-22T03:15:47.039Z,30.67
2023-01-22T03:18:33.125Z,28.13
2023-01-22T03:21:21.180Z,29.58
2023-01-22T03:23:50.651Z,29.33
2023-01-22T03:26:18.241Z,28.83
2023-01-22T03:28:46.088Z,32.78
2023-01-22T03:31:14.677Z,30.15
2023-01-22T03:33:42.115Z,29.15
2023-01-22T03:36:12.166Z,29.02
2023-01-22T03:38:38.782Z,28.35
2023-01-22T03:41:08.233Z,29.52
2023-01-22T03:43:35.055Z,27.92
2023-01-22T03:46:15.601Z,29.67
2023-01-22T03:48:43.251Z,30.23
2023-01-22T03:51:15.157Z,32.38
2023-01-22T03:53:43.854Z,30.73
2023-01-22T03:56:16.813Z,35.03
2023-01-22T03:58:44.001Z,26.98
2023-01-22T04:01:13.166Z,34.28
2023-01-22T04:03:40.669Z,31.85
2023-01-22T04:06:09.480Z,30.38
2023-01-22T04:08:37.209Z,29.15
2023-01-22T04:11:04.066Z,25.40
2023-01-22T04:13:32.252Z,32.45
2023-01-22T04:15:59.064Z,29.48
2023-01-22T04:18:25.823Z,31.48
2023-01-22T04:20:52.912Z,29.85
2023-01-22T04:23:21.535Z,32.78
2023-01-22T04:25:48.792Z,24.52
2023-01-22T04:28:16.636Z,29.77
2023-01-22T04:30:45.324Z,31.50
2023-01-22T04:33:12.597Z,29.33
2023-01-22T04:35:39.975Z,26.48
2023-01-22T04:38:07.721Z,30.85
2023-01-22T04:40:34.307Z,28.05
2023-01-22T04:43:05.338Z,29.77
2023-01-22T04:45:32.159Z,30.60
2023-01-22T04:47:59.881Z,28.48
2023-01-22T04:50:32.210Z,37.92
2023-01-22T04:53:00.402Z,32.28
2023-01-22T04:55:27.982Z,29.42
2023-01-22T04:57:56.420Z,26.33
2023-01-22T05:00:24.579Z,28.08
2023-01-22T05:02:55.475Z,28.35
2023-01-22T05:05:22.230Z,24.65
2023-01-22T05:07:48.845Z,27.17
2023-01-22T05:10:16.181Z,32.42
2023-01-22T05:12:42.939Z,31.80
2023-01-22T05:15:23.141Z,26.13
2023-01-22T05:17:50.624Z,29.90
2023-01-22T05:20:17.670Z,28.98
2023-01-22T05:22:44.873Z,35.78
2023-01-22T05:25:12.092Z,35.60
2023-01-22T05:27:38.785Z,31.95
2023-01-22T05:30:06.400Z,35.35
2023-01-22T05:32:33.028Z,29.73
2023-01-22T05:34:59.654Z,30.08
2023-01-22T05:37:26.304Z,32.78
2023-01-22T05:39:52.939Z,29.48
2023-01-22T05:42:20.911Z,29.50
2023-01-22T05:44:47.713Z,32.22
2023-01-22T05:47:14.358Z,31.45
2023-01-22T05:49:41.670Z,32.22
2023-01-22T05:52:10.824Z,34.88
2023-01-22T05:54:39.770Z,31.90
2023-01-22T05:57:07.100Z,32.65
2023-01-22T05:59:34.034Z,31.58
2023-01-22T06:02:00.882Z,31.95
2023-01-22T06:04:27.609Z,30.65
2023-01-22T06:06:54.346Z,35.38
2023-01-22T06:09:21.043Z,36.22
2023-01-22T06:11:47.674Z,36.95
2023-01-22T06:14:14.343Z,34.80
2023-01-22T06:16:40.936Z,39.33
2023-01-22T06:19:07.858Z,35.85
2023-01-22T06:21:34.480Z,32.88
2023-01-22T06:24:01.096Z,32.33
2023-01-22T06:26:27.688Z,32.72
2023-01-22T06:28:55.232Z,27.88
2023-01-22T06:31:22.044Z,32.63
2023-01-22T06:33:48.894Z,40.30
2023-01-22T06:36:15.593Z,37.85
2023-01-22T06:38:42.172Z,35.47
2023-01-22T06:41:09.568Z,31.48
2023-01-22T06:43:37.671Z,36.08
2023-01-22T06:46:04.726Z,33.13
2023-01-22T06:48:31.316Z,34.10
2023-01-22T06:50:59.680Z,36.90
2023-01-22T06:53:26.741Z,36.85
2023-01-22T06:55:53.424Z,37.38
2023-01-22T06:58:20.041Z,33.28
2023-01-22T07:00:46.756Z,32.85
2023-01-22T07:03:15.259Z,36.38
2023-01-22T07:05:42.391Z,37.60
2023-01-22T07:08:13.219Z,37.30
2023-01-22T07:10:40.117Z,42.75
2023-01-22T07:13:07.952Z,44.60
2023-01-22T07:15:34.570Z,36.95
2023-01-22T07:18:01.328Z,35.08
2023-01-22T07:20:27.943Z,35.65
2023-01-22T07:22:59.158Z,30.42
2023-01-22T07:25:27.610Z,33.22
2023-01-22T07:28:04.066Z,29.50
2023-01-22T07:30:31.223Z,35.78
2023-01-22T07:33:00.277Z,32.45
2023-01-22T07:35:27.156Z,30.23
2023-01-22T07:37:55.376Z,33.90
2023-01-22T07:40:24.242Z,40.13
2023-01-22T07:42:51.837Z,33.58
2023-01-22T07:45:22.364Z,32.65
2023-01-22T07:47:57.486Z,30.40
2023-01-22T07:50:27.030Z,30.80
2023-01-22T07:52:53.851Z,29.90
2023-01-22T07:55:20.494Z,32.00
2023-01-22T07:57:47.319Z,31.98
2023-01-22T08:00:16.195Z,28.70
2023-01-22T08:02:43.108Z,33.08
2023-01-22T08:05:13.671Z,32.85
2023-01-22T08:07:40.342Z,34.83
2023-01-22T08:10:07.714Z,42.15
2023-01-22T08:12:36.557Z,138.80
2023-01-22T08:15:03.547Z,306.50
2023-01-22T08:17:30.224Z,429.58
2023-01-22T08:19:56.875Z,599.20
2023-01-22T08:22:23.466Z,551.17
2023-01-22T08:24:50.078Z,513.08
2023-01-22T08:27:16.905Z,175.93
2023-01-22T08:29:43.541Z,87.93
2023-01-22T08:32:10.180Z,106.40
2023-01-22T08:34:36.892Z,73.32
2023-01-22T08:37:03.509Z,101.05
2023-01-22T08:39:30.082Z,116.80
2023-01-22T08:41:57.739Z,61.90
2023-01-22T08:44:25.385Z,47.10
2023-01-22T08:46:52.392Z,40.95
2023-01-22T08:49:21.251Z,31.80
2023-01-22T08:51:47.889Z,29.65
2023-01-22T08:54:14.547Z,38.65
2023-01-22T08:56:41.136Z,37.33
2023-01-22T08:59:07.746Z,31.52
2023-01-22T09:01:35.066Z,35.35
2023-01-22T09:04:01.622Z,26.13
2023-01-22T09:06:28.245Z,28.38
2023-01-22T09:08:54.886Z,31.98
2023-01-22T09:11:21.507Z,33.67
2023-01-22T09:13:48.136Z,29.05
2023-01-22T09:16:14.866Z,29.65
2023-01-22T09:18:41.508Z,49.70
2023-01-22T09:21:08.511Z,32.28
2023-01-22T09:23:35.191Z,29.33
2023-01-22T09:26:01.901Z,36.33
2023-01-22T09:28:28.517Z,28.67
2023-01-22T09:30:55.190Z,29.17
2023-01-22T09:33:21.821Z,35.35
2023-01-22T09:35:48.458Z,28.17
2023-01-22T09:38:15.433Z,30.90
2023-01-22T09:40:57.649Z,48.05
2023-01-22T09:43:49.425Z,54.88
2023-01-22T09:46:22.372Z,37.95
2023-01-22T09:48:53.596Z,72.88
2023-01-22T09:51:22.282Z,33.50
2023-01-22T09:53:59.732Z,37.13
2023-01-22T09:56:33.358Z,53.15
2023-01-22T09:59:03.345Z,41.42
2023-01-22T10:01:30.740Z,31.67
2023-01-22T10:04:03.382Z,29.40
2023-01-22T10:06:30.275Z,82.05
2023-01-22T10:09:12.521Z,32.25
2023-01-22T10:11:39.621Z,35.22
2023-01-22T10:14:09.341Z,26.20
2023-01-22T10:16:37.284Z,28.13
2023-01-22T10:19:23.393Z,27.70
2023-01-22T10:21:58.248Z,31.83
2023-01-22T10:24:24.989Z,26.48
2023-01-22T10:26:54.619Z,28.92
2023-01-22T10:29:33.450Z,24.92
2023-01-22T10:32:21.459Z,30.20
2023-01-22T10:35:01.406Z,24.80
2023-01-22T10:37:29.272Z,21.85
2023-01-22T10:39:58.737Z,24.42
2023-01-22T10:42:29.543Z,24.48
2023-01-22T10:45:07.889Z,30.92
2023-01-22T10:47:34.688Z,29.58
2023-01-22T10:50:12.321Z,28.08
2023-01-22T10:52:42.350Z,27.48
2023-01-22T10:55:22.760Z,24.85
2023-01-22T10:57:55.698Z,29.98
2023-01-22T11:00:51.982Z,27.17
2023-01-22T11:03:39.230Z,31.70
2023-01-22T11:06:17.228Z,31.08
2023-01-22T11:09:00.738Z,26.65
2023-01-22T11:11:34.779Z,27.65
2023-01-22T11:14:15.376Z,28.17
2023-01-22T11:16:43.191Z,29.73
2023-01-22T11:19:18.133Z,27.85
2023-01-22T11:21:54.898Z,32.92
2023-01-22T11:24:29.448Z,31.42
2023-01-22T11:27:42.613Z,28.23
2023-01-22T11:30:40.336Z,26.02
2023-01-22T11:33:30.050Z,30.63
2023-01-22T11:36:21.464Z,31.75
2023-01-22T11:38:56.419Z,29.88
2023-01-22T11:42:05.708Z,38.95
2023-01-22T11:45:18.581Z,33.80
2023-01-22T11:48:03.901Z,31.27
2023-01-22T11:50:40.601Z,31.98
2023-01-22T11:53:25.821Z,33.95
2023-01-22T11:56:10.665Z,29.58
2023-01-22T11:59:09.515Z,30.15
2023-01-22T12:01:48.174Z,34.35
2023-01-22T12:04:43.188Z,30.75
2023-01-22T12:07:26.769Z,31.02
2023-01-22T12:10:47.635Z,35.60
2023-01-22T12:13:57.411Z,31.60
2023-01-22T12:16:37.170Z,32.50
2023-01-22T12:19:20.540Z,27.40
2023-01-22T12:22:11.893Z,32.67
2023-01-22T12:25:00.609Z,27.88
2023-01-22T12:27:33.525Z,33.00
2023-01-22T12:30:15.973Z,31.58
2023-01-22T12:32:49.266Z,29.70
2023-01-22T12:35:20.958Z,29.45
2023-01-22T12:38:16.302Z,26.67
2023-01-22T12:41:36.430Z,26.50
2023-01-22T12:44:31.657Z,28.25
2023-01-22T12:47:32.318Z,28.80
2023-01-22T12:49:58.911Z,27.10
2023-01-22T12:52:48.054Z,27.48
2023-01-22T12:55:35.089Z,32.90
2023-01-22T12:58:02.550Z,28.60
2023-01-22T13:00:39.023Z,29.45
2023-01-22T13:03:33.090Z,27.13
2023-01-22T13:06:02.603Z,27.92
2023-01-22T13:08:43.736Z,28.17
2023-01-22T13:11:26.670Z,32.63
2023-01-22T13:14:15.990Z,28.80
2023-01-22T13:16:51.757Z,25.88
2023-01-22T13:19:28.161Z,31.10
2023-01-22T13:21:58.986Z,29.05
2023-01-22T13:24:25.656Z,29.10
2023-01-22T13:26:54.981Z,28.30
2023-01-22T13:29:34.027Z,30.08
2023-01-22T13:32:03.522Z,27.02
2023-01-22T13:34:30.684Z,29.75
2023-01-22T13:36:58.144Z,30.23
2023-01-22T13:39:30.127Z,30.05
2023-01-22T13:41:59.699Z,32.25
2023-01-22T13:44:32.438Z,31.85
2023-01-22T13:46:59.808Z,27.95
2023-01-22T13:49:28.945Z,32.70
2023-01-22T13:51:59.222Z,35.10
2023-01-22T13:54:43.106Z,33.03
2023-01-22T13:57:14.519Z,27.35
2023-01-22T14:00:01.249Z,31.15
2023-01-22T14:02:34.607Z,31.73
2023-01-22T14:05:02.513Z,31.48
2023-01-22T14:07:32.032Z,32.38
2023-01-22T14:10:12.256Z,30.23
2023-01-22T14:12:38.969Z,32.25
2023-01-22T14:15:21.225Z,36.80
2023-01-22T14:17:49.810Z,30.50
2023-01-22T14:20:17.685Z,39.10
2023-01-22T14:22:44.599Z,35.35
2023-01-22T14:25:11.178Z,34.97
2023-01-22T14:27:44.275Z,33.30
2023-01-22T14:30:14.612Z,37.90
2023-01-22T14:32:43.203Z,25.35
2023-01-22T14:35:19.135Z,32.00
2023-01-22T14:37:46.393Z,33.65
2023-01-22T14:40:14.656Z,30.98
2023-01-22T14:42:41.314Z,34.80
2023-01-22T14:45:09.369Z,35.20
2023-01-22T14:47:36.135Z,32.03
2023-01-22T14:50:03.654Z,35.47
2023-01-22T14:52:30.242Z,36.05
2023-01-22T14:54:56.948Z,34.50
2023-01-22T14:57:25.390Z,37.95
2023-01-22T14:59:52.170Z,31.83
2023-01-22T15:02:18.991Z,35.55
2023-01-22T15:04:45.793Z,34.22
2023-01-22T15:07:12.434Z,37.67
2023-01-22T15:09:39.655Z,37.95
2023-01-22T15:12:07.017Z,39.58
2023-01-22T15:14:33.665Z,40.22
2023-01-22T15:17:00.483Z,36.88
2023-01-22T15:19:27.171Z,37.05
2023-01-22T15:21:53.931Z,33.58
2023-01-22T15:24:20.681Z,38.63
2023-01-22T15:26:47.310Z,35.72
2023-01-22T15:29:14.760Z,34.22
2023-01-22T15:31:41.718Z,45.08
2023-01-22T15:34:08.743Z,41.42
2023-01-22T15:36:36.937Z,41.15
2023-01-22T15:39:03.635Z,37.05
2023-01-22T15:41:32.328Z,38.67
2023-01-22T15:44:01.257Z,35.78
2023-01-22T15:46:30.763Z,46.42
2023-01-22T15:48:58.674Z,39.88
2023-01-22T15:51:26.350Z,40.53
2023-01-22T15:54:00.841Z,47.50
2023-01-22T15:56:30.258Z,41.88
2023-01-22T15:58:57.774Z,41.60
2023-01-22T16:01:25.860Z,40.72
2023-01-22T16:03:53.330Z,44.38
2023-01-22T16:06:25.866Z,37.92
2023-01-22T16:11:21.146Z,39.00
2023-01-22T16:13:47.794Z,42.80
2023-01-22T16:16:26.071Z,39.40
2023-01-22T16:18:53.318Z,43.20
2023-01-22T16:21:21.327Z,41.85
2023-01-22T16:23:48.780Z,45.67
2023-01-22T16:26:20.783Z,39.58
2023-01-22T16:28:49.609Z,43.22
2023-01-22T16:31:19.185Z,45.25
2023-01-22T16:33:47.998Z,41.53
2023-01-22T16:36:17.369Z,50.42
2023-01-22T16:38:44.503Z,46.97
2023-01-22T16:41:25.559Z,43.58
2023-01-22T16:44:01.943Z,44.10
2023-01-22T16:46:31.489Z,42.88
2023-01-22T16:49:01.062Z,39.45
2023-01-22T16:51:33.438Z,46.88
2023-01-22T16:54:00.129Z,45.05
2023-01-22T16:56:26.677Z,38.80
2023-01-22T16:58:53.302Z,42.58
2023-01-22T17:01:20.868Z,47.03
2023-01-22T17:03:47.678Z,44.58
2023-01-22T17:06:23.118Z,44.17
2023-01-22T17:08:51.012Z,39.78
2023-01-22T17:11:18.260Z,44.90
2023-01-22T17:13:45.355Z,45.60
2023-01-22T17:16:12.973Z,46.10
2023-01-22T17:18:39.841Z,42.28
2023-01-22T17:21:08.280Z,51.58
2023-01-22T17:23:35.103Z,45.35
2023-01-22T17:26:06.052Z,49.92
2023-01-22T17:28:35.467Z,43.85
2023-01-22T17:31:06.866Z,48.75
2023-01-22T17:33:33.948Z,48.35
2023-01-22T17:36:00.945Z,54.40
2023-01-22T17:38:29.099Z,45.38
2023-01-22T17:40:56.969Z,52.22
2023-01-22T17:43:24.339Z,77.53
2023-01-22T17:45:51.024Z,59.00
2023-01-22T17:48:17.645Z,69.53
2023-01-22T17:50:44.322Z,69.30
2023-01-22T17:53:11.047Z,43.25
2023-01-22T17:55:38.005Z,45.42
2023-01-22T17:58:04.627Z,45.08
2023-01-22T18:00:31.668Z,48.05
2023-01-22T18:02:58.329Z,48.42
2023-01-22T18:05:26.664Z,47.42
2023-01-22T18:07:53.229Z,44.88
2023-01-22T18:10:21.263Z,47.92
2023-01-22T18:12:49.132Z,44.47
2023-01-22T18:15:15.884Z,52.38
2023-01-22T18:17:42.809Z,49.42
2023-01-22T18:20:10.253Z,53.53
2023-01-22T18:22:36.871Z,50.10
2023-01-22T18:25:03.785Z,49.38
2023-01-22T18:27:30.399Z,58.05
2023-01-22T18:29:56.988Z,44.65
2023-01-22T18:32:24.330Z,48.90
2023-01-22T18:34:51.015Z,45.63
2023-01-22T18:37:17.654Z,59.20
2023-01-22T18:39:44.302Z,50.95
2023-01-22T18:42:10.894Z,63.28
2023-01-22T18:44:38.837Z,45.38
2023-01-22T18:47:11.025Z,49.72
2023-01-22T18:49:37.613Z,46.95
2023-01-22T18:52:04.256Z,46.03
2023-01-22T18:54:30.936Z,51.92
2023-01-22T18:56:57.584Z,45.67
2023-01-22T18:59:24.447Z,47.45
2023-01-22T19:01:51.851Z,40.83
2023-01-22T19:04:21.844Z,55.38
2023-01-22T19:06:53.490Z,53.13
2023-01-22T19:09:21.241Z,55.60
2023-01-22T19:11:49.685Z,56.15
2023-01-22T19:14:19.495Z,59.55
2023-01-22T19:16:48.859Z,55.00
2023-01-22T19:19:16.201Z,50.15
2023-01-22T19:21:47.135Z,48.58
2023-01-22T19:24:16.152Z,53.63
2023-01-22T19:26:46.437Z,51.92
2023-01-22T19:29:17.237Z,49.65
2023-01-22T19:31:48.360Z,48.85
2023-01-22T19:34:23.208Z,43.28
2023-01-22T19:36:52.532Z,52.05
2023-01-22T19:39:20.383Z,50.30
2023-01-22T19:41:47.260Z,46.22
2023-01-22T19:44:13.893Z,54.00
2023-01-22T19:46:40.926Z,47.10
2023-01-22T19:49:08.694Z,50.78
2023-01-22T19:51:35.683Z,46.47
2023-01-22T19:54:04.635Z,48.47
2023-01-22T19:56:34.394Z,46.22
2023-01-22T19:59:07.158Z,48.95
2023-01-22T20:01:35.075Z,48.60
2023-01-22T20:04:01.860Z,47.30
2023-01-22T20:06:28.612Z,46.13
2023-01-22T20:08:57.114Z,57.85
2023-01-22T20:11:24.664Z,52.78
2023-01-22T20:13:51.410Z,54.22
2023-01-22T20:16:21.913Z,49.92
2023-01-22T20:18:49.542Z,48.80
2023-01-22T20:21:21.284Z,50.75
2023-01-22T20:23:50.752Z,47.83
2023-01-22T20:26:19.036Z,47.63
2023-01-22T20:28:46.406Z,51.28
2023-01-22T20:31:17.343Z,45.42
2023-01-22T20:33:44.149Z,49.95
2023-01-22T20:36:15.097Z,47.85
2023-01-22T20:38:45.805Z,47.00
2023-01-22T20:41:14.065Z,46.45
2023-01-22T20:43:42.965Z,49.80
2023-01-22T20:46:22.812Z,56.58
2023-01-22T20:48:51.350Z,49.63
2023-01-22T20:51:24.522Z,65.90
2023-01-22T20:53:54.972Z,69.30
2023-01-22T20:56:25.477Z,58.15
2023-01-22T20:58:57.437Z,52.38
2023-01-22T21:01:24.910Z,45.95
2023-01-22T21:03:52.231Z,47.60
2023-01-22T21:06:20.748Z,47.60
2023-01-22T21:08:51.304Z,49.90
2023-01-22T21:11:22.190Z,49.60
2023-01-22T21:13:50.972Z,49.08
2023-01-22T21:16:23.192Z,49.38
2023-01-22T21:18:49.929Z,47.72
2023-01-22T21:21:19.756Z,47.03
2023-01-22T21:23:52.152Z,47.05
2023-01-22T21:26:22.965Z,51.08
2023-01-22T21:28:53.208Z,54.83
2023-01-22T21:31:21.650Z,56.92
2023-01-22T21:33:48.819Z,54.80
2023-01-22T21:36:18.404Z,52.70
2023-01-22T21:38:49.093Z,52.58
2023-01-22T21:41:17.688Z,49.88
2023-01-22T21:44:05.052Z,56.15
2023-01-22T21:46:38.978Z,53.28
2023-01-22T21:49:21.682Z,48.95
2023-01-22T21:54:25.016Z,43.58
2023-01-22T21:56:52.350Z,49.60
2023-01-22T21:59:19.456Z,57.65
2023-01-22T22:01:46.785Z,53.22
2023-01-22T22:04:15.019Z,52.35
2023-01-22T22:06:42.199Z,49.17
2023-01-22T22:09:17.549Z,49.15
2023-01-22T22:11:44.874Z,51.65
2023-01-22T22:14:12.712Z,49.95
2023-01-22T22:16:39.449Z,53.45
2023-01-22T22:19:07.535Z,46.95
2023-01-22T22:21:34.485Z,52.67
2023-01-22T22:24:01.227Z,50.05
2023-01-22T22:26:28.003Z,51.08
2023-01-22T22:28:54.812Z,51.50
2023-01-22T22:31:22.793Z,54.15
2023-01-22T22:33:52.221Z,45.85
2023-01-22T22:36:22.032Z,46.13
2023-01-22T22:38:48.970Z,45.72
2023-01-22T22:41:22.607Z,50.78
2023-01-22T22:43:53.415Z,45.72
2023-01-22T22:46:23.014Z,54.47
2023-01-22T22:48:50.775Z,51.45
2023-01-22T22:51:23.529Z,55.33
2023-01-22T22:53:55.805Z,48.13
2023-01-22T22:56:22.959Z,49.95
2023-01-22T22:58:49.674Z,50.33
2023-01-22T23:01:21.787Z,50.92
2023-01-22T23:03:48.896Z,47.85
2023-01-22T23:06:18.817Z,50.10
2023-01-22T23:08:52.294Z,48.13
2023-01-22T23:11:21.733Z,58.03
2023-01-22T23:13:52.142Z,48.70
2023-01-22T23:16:21.833Z,49.45
2023-01-22T23:18:51.249Z,51.40
2023-01-22T23:21:23.859Z,49.90
2023-01-22T23:23:51.988Z,45.38
2023-01-22T23:26:29.959Z,52.35
2023-01-22T23:28:58.690Z,50.45
2023-01-22T23:31:26.457Z,49.47
2023-01-22T23:33:54.975Z,49.53
2023-01-22T23:36:22.298Z,47.65
2023-01-22T23:38:49.348Z,46.53
2023-01-22T23:41:17.580Z,47.05
2023-01-22T23:43:44.688Z,48.72
2023-01-22T23:46:14.721Z,51.17
2023-01-22T23:48:41.882Z,50.70
2023-01-22T23:51:09.447Z,47.90
2023-01-22T23:53:37.645Z,57.35
2023-01-22T23:56:05.406Z,52.38
2023-01-22T23:58:33.068Z,48.50
